createdAt,value
2023-04-14T00:01:56.017Z,12.77
2023-04-14T00:07:02.742Z,11.63
2023-04-14T00:12:11.290Z,12.05
2023-04-14T00:17:18.281Z,16.08
2023-04-14T00:22:25.125Z,16.17
2023-04-14T00:27:33.315Z,14.02
2023-04-14T00:32:40.228Z,12.17
2023-04-14T00:37:47.031Z,13.82
2023-04-14T00:42:54.980Z,12.20
2023-04-14T00:48:02.362Z,10.48
2023-04-14T00:53:10.182Z,11.90
2023-04-14T00:58:18.419Z,13.38
2023-04-14T01:03:26.115Z,12.87
2023-04-14T01:08:32.919Z,11.13
2023-04-14T01:13:54.535Z,11.07
2023-04-14T01:19:22.130Z,10.30
2023-04-14T01:25:04.988Z,10.52
2023-04-14T01:30:44.124Z,11.68
2023-04-14T01:35:59.211Z,9.68
2023-04-14T01:41:10.452Z,9.65
2023-04-14T01:46:19.493Z,9.35
2023-04-14T01:51:29.295Z,14.73
2023-04-14T01:56:37.961Z,9.38
2023-04-14T02:01:48.674Z,15.10
2023-04-14T02:07:00.129Z,14.70
2023-04-14T02:12:09.802Z,12.88
2023-04-14T02:17:16.966Z,14.02
2023-04-14T02:22:27.662Z,13.20
2023-04-14T02:27:43.261Z,15.15
2023-04-14T02:32:59.108Z,13.25
2023-04-14T02:38:15.313Z,15.40
2023-04-14T02:43:28.341Z,15.02
2023-04-14T02:48:37.784Z,15.43
2023-04-14T02:53:45.891Z,13.60
2023-04-14T02:59:12.819Z,14.52
2023-04-14T03:04:33.001Z,17.40
2023-04-14T03:09:44.939Z,12.73
2023-04-14T03:14:53.011Z,12.35
2023-04-14T03:20:01.984Z,15.93
2023-04-14T03:25:12.742Z,16.85
2023-04-14T03:30:26.310Z,13.98
2023-04-14T03:35:33.940Z,13.95
2023-04-14T03:40:44.695Z,17.63
2023-04-14T03:45:52.220Z,17.50
2023-04-14T03:51:02.578Z,15.98
2023-04-14T03:56:15.471Z,19.55
2023-04-14T04:01:26.097Z,20.42
2023-04-14T04:06:33.316Z,22.00
2023-04-14T04:11:43.716Z,25.02
2023-04-14T04:16:52.439Z,21.60
2023-04-14T04:22:01.824Z,25.05
2023-04-14T04:27:24.171Z,23.17
2023-04-14T04:32:31.943Z,23.63
2023-04-14T04:37:40.263Z,27.48
2023-04-14T04:42:48.279Z,26.97
2023-04-14T04:47:56.418Z,22.90
2023-04-14T04:53:02.445Z,24.58
2023-04-14T04:58:10.514Z,19.95
2023-04-14T05:03:16.971Z,20.48
2023-04-14T05:08:23.786Z,23.60
2023-04-14T05:13:31.548Z,24.63
2023-04-14T05:18:38.517Z,20.27
2023-04-14T05:23:47.287Z,23.05
2023-04-14T05:28:55.296Z,20.73
2023-04-14T05:34:01.918Z,22.25
2023-04-14T05:39:11.037Z,19.42
2023-04-14T05:44:18.838Z,23.23
2023-04-14T05:49:25.057Z,22.70
2023-04-14T05:54:31.394Z,19.17
2023-04-14T05:59:40.668Z,23.27
2023-04-14T06:04:47.885Z,21.73
2023-04-14T06:09:54.746Z,19.05
2023-04-14T06:15:02.589Z,20.17
2023-04-14T06:20:11.402Z,18.60
2023-04-14T06:25:18.130Z,19.30
2023-04-14T06:30:28.799Z,17.98
2023-04-14T06:35:35.972Z,18.65
2023-04-14T06:40:42.349Z,19.73
2023-04-14T06:45:51.253Z,17.85
2023-04-14T06:50:58.338Z,18.38
2023-04-14T06:56:06.906Z,19.65
2023-04-14T07:01:15.025Z,20.38
2023-04-14T07:06:21.724Z,15.73
2023-04-14T07:11:30.118Z,16.35
2023-04-14T07:16:37.956Z,14.98
2023-04-14T07:21:45.703Z,16.45
2023-04-14T07:26:52.706Z,16.30
2023-04-14T07:32:01.628Z,13.38
2023-04-14T07:37:08.262Z,11.88
2023-04-14T07:42:15.680Z,15.10
2023-04-14T07:47:23.281Z,11.65
2023-04-14T07:52:29.477Z,13.23
2023-04-14T07:57:37.083Z,11.30
2023-04-14T08:02:45.273Z,11.23
2023-04-14T08:07:52.371Z,8.50
2023-04-14T08:13:00.136Z,9.27
2023-04-14T08:18:09.171Z,10.57
2023-04-14T08:23:15.629Z,9.45
2023-04-14T08:28:21.909Z,7.15
2023-04-14T08:33:29.808Z,8.57
2023-04-14T08:38:36.201Z,15.02
2023-04-14T08:43:42.891Z,12.55
2023-04-14T08:48:56.714Z,11.40
2023-04-14T08:54:10.504Z,10.30
2023-04-14T08:59:17.100Z,11.15
2023-04-14T09:04:25.964Z,7.72
2023-04-14T09:14:40.451Z,7.20
2023-04-14T09:20:35.590Z,11.52
2023-04-14T09:25:17.849Z,9.98
2023-04-14T09:30:24.766Z,12.82
2023-04-14T09:35:47.783Z,6.05
2023-04-14T09:40:56.451Z,7.10
2023-04-14T09:46:08.703Z,5.15
2023-04-14T09:51:17.976Z,8.13
2023-04-14T09:56:29.279Z,5.33
2023-04-14T10:01:37.139Z,4.85
2023-04-14T10:06:49.765Z,7.22
2023-04-14T10:12:13.677Z,8.75
2023-04-14T10:17:20.109Z,6.03
2023-04-14T10:22:29.546Z,7.45
2023-04-14T10:27:37.152Z,6.57
2023-04-14T10:32:47.584Z,7.63
2023-04-14T10:37:55.972Z,9.70
2023-04-14T10:43:02.263Z,5.88
2023-04-14T10:48:12.030Z,6.68
2023-04-14T10:53:19.644Z,7.20
2023-04-14T10:58:30.894Z,4.85
2023-04-14T11:03:46.775Z,4.95
2023-04-14T11:08:57.751Z,4.43
2023-04-14T11:14:13.480Z,5.35
2023-04-14T11:19:20.419Z,4.55
2023-04-14T11:24:28.323Z,5.50
2023-04-14T11:29:34.764Z,5.53
2023-04-14T11:34:41.824Z,4.20
2023-04-14T11:39:51.032Z,8.73
2023-04-14T11:50:07.493Z,5.20
2023-04-14T11:55:16.087Z,11.65
2023-04-14T12:00:23.142Z,3.60
2023-04-14T12:05:31.606Z,3.53
2023-04-14T12:10:41.072Z,5.82
2023-04-14T12:15:48.079Z,3.50
2023-04-14T12:20:56.538Z,4.28
2023-04-14T12:26:04.545Z,3.78
2023-04-14T12:31:12.377Z,3.20
2023-04-14T12:36:19.342Z,4.67
2023-04-14T12:41:28.554Z,6.50
2023-04-14T12:46:35.075Z,8.48
2023-04-14T12:51:42.031Z,3.33
2023-04-14T12:56:49.951Z,3.40
2023-04-14T13:01:56.307Z,4.70
2023-04-14T13:07:02.915Z,2.97
2023-04-14T13:12:11.029Z,5.15
2023-04-14T13:17:17.960Z,5.27
2023-04-14T13:22:24.774Z,2.38
2023-04-14T13:27:32.722Z,2.33
2023-04-14T13:32:39.380Z,2.60
2023-04-14T13:37:45.942Z,4.47
2023-04-14T13:42:53.724Z,2.10
2023-04-14T13:48:01.836Z,4.25
2023-04-14T13:53:11.539Z,3.73
2023-04-14T13:58:19.853Z,3.90
2023-04-14T14:03:28.007Z,3.57
2023-04-14T14:08:39.441Z,2.95
2023-04-14T14:13:47.377Z,5.60
2023-04-14T14:18:53.990Z,5.13
2023-04-14T14:24:00.806Z,3.53
2023-04-14T14:29:11.299Z,3.95
2023-04-14T14:34:18.294Z,3.38
2023-04-14T14:39:25.164Z,5.90
2023-04-14T14:44:33.140Z,5.55
2023-04-14T14:49:46.021Z,6.15
2023-04-14T14:54:59.506Z,4.05
2023-04-14T15:00:09.511Z,6.13
2023-04-14T15:05:16.009Z,3.90
2023-04-14T15:10:22.614Z,7.57
2023-04-14T15:15:30.500Z,6.63
2023-04-14T15:20:37.238Z,5.77
2023-04-14T15:25:43.866Z,4.68
2023-04-14T15:30:51.793Z,4.38
2023-04-14T15:35:58.441Z,8.80
2023-04-14T15:41:05.968Z,4.15
2023-04-14T15:46:14.906Z,4.60
2023-04-14T15:56:27.858Z,7.22
2023-04-14T16:01:35.986Z,23.83
2023-04-14T16:06:42.750Z,5.07
2023-04-14T16:11:49.776Z,6.53
2023-04-14T16:17:00.190Z,6.85
2023-04-14T16:22:06.870Z,7.40
2023-04-14T16:27:13.744Z,8.13
2023-04-14T16:32:22.642Z,4.63
2023-04-14T16:37:29.252Z,7.03
2023-04-14T16:42:37.929Z,4.68
2023-04-14T16:47:46.597Z,4.70
2023-04-14T16:58:01.701Z,7.30
2023-04-14T17:03:10.558Z,8.15
2023-04-14T17:08:17.965Z,7.38
2023-04-14T17:13:25.372Z,4.95
2023-04-14T17:18:33.875Z,4.95
2023-04-14T17:23:41.533Z,7.30
2023-04-14T17:28:52.550Z,5.07
2023-04-14T17:34:11.060Z,8.23
2023-04-14T17:39:20.830Z,4.55
2023-04-14T17:44:37.094Z,11.15
2023-04-14T17:49:46.641Z,5.80
2023-04-14T17:55:01.576Z,4.45
2023-04-14T18:00:13.565Z,6.93
2023-04-14T18:05:29.055Z,7.90
2023-04-14T18:10:39.179Z,11.07
2023-04-14T18:15:52.649Z,9.18
2023-04-14T18:21:03.478Z,16.10
2023-04-14T18:31:24.994Z,6.97
2023-04-14T18:36:36.338Z,9.13
2023-04-14T18:41:46.372Z,8.95
2023-04-14T18:46:56.257Z,8.13
2023-04-14T18:52:08.576Z,8.88
2023-04-14T18:57:28.383Z,12.10
2023-04-14T19:02:43.206Z,11.15
2023-04-14T19:07:55.557Z,8.38
2023-04-14T19:13:07.718Z,9.98
2023-04-14T19:18:22.150Z,8.98
2023-04-14T19:23:32.299Z,9.00
2023-04-14T19:28:41.248Z,11.50
2023-04-14T19:33:50.353Z,10.98
2023-04-14T19:39:01.495Z,12.10
2023-04-14T19:44:09.343Z,9.32
2023-04-14T19:49:17.386Z,10.07
2023-04-14T19:54:30.293Z,10.50
2023-04-14T19:59:39.427Z,8.48
2023-04-14T20:04:50.046Z,8.50
2023-04-14T20:10:02.231Z,8.35
2023-04-14T20:15:16.804Z,6.72
2023-04-14T20:20:27.245Z,9.68
2023-04-14T20:25:38.070Z,9.48
2023-04-14T20:30:49.059Z,7.57
2023-04-14T20:35:58.627Z,7.28
2023-04-14T20:41:09.130Z,9.02
2023-04-14T20:46:17.094Z,9.43
2023-04-14T20:51:24.511Z,9.48
2023-04-14T20:56:34.301Z,6.38
2023-04-14T21:01:43.283Z,8.82
2023-04-14T21:06:50.689Z,7.57
2023-04-14T21:12:14.349Z,8.10
2023-04-14T21:17:24.735Z,8.07
2023-04-14T21:22:31.483Z,10.83
2023-04-14T21:27:39.774Z,9.25
2023-04-14T21:32:46.508Z,9.55
2023-04-14T21:37:53.408Z,10.80
2023-04-14T21:43:01.815Z,9.32
2023-04-14T21:48:08.968Z,10.38
2023-04-14T21:53:15.730Z,8.07
2023-04-14T21:58:23.881Z,7.88
2023-04-14T22:03:30.488Z,9.80
2023-04-14T22:08:38.815Z,9.63
2023-04-14T22:13:47.153Z,9.47
2023-04-14T22:18:54.370Z,10.00
2023-04-14T22:24:01.295Z,11.65
2023-04-14T22:29:11.454Z,7.88
2023-04-14T22:34:18.686Z,8.38
2023-04-14T22:39:25.305Z,13.35
2023-04-14T22:44:33.249Z,10.60
2023-04-14T22:49:41.156Z,7.37
2023-04-14T22:54:48.993Z,7.97
2023-04-14T22:59:57.163Z,8.10
2023-04-14T23:05:04.548Z,8.90
2023-04-14T23:10:12.777Z,9.52
2023-04-14T23:15:21.864Z,11.17
2023-04-14T23:25:34.715Z,11.68
2023-04-14T23:38:28.386Z,7.50
2023-04-14T23:43:36.816Z,9.55
2023-04-14T23:48:43.510Z,9.40
2023-04-14T23:53:53.420Z,11.93
2023-04-14T23:59:00.423Z,9.40
